createdAt,value
2019-05-22T00:01:20.303Z,13.96
2019-05-22T00:05:46.763Z,13.96
2019-05-22T00:10:14.646Z,13.94
2019-05-22T00:14:40.692Z,14.03
2019-05-22T00:19:07.247Z,14.00
2019-05-22T00:23:32.865Z,14.03
2019-05-22T00:27:59.762Z,14.05
2019-05-22T00:32:26.031Z,14.07
2019-05-22T00:36:50.562Z,14.15
2019-05-22T00:41:18.323Z,14.12
2019-05-22T00:45:45.724Z,14.14
2019-05-22T00:50:16.484Z,14.13
2019-05-22T00:54:52.022Z,14.04
2019-05-22T00:59:24.819Z,13.99
2019-05-22T01:03:50.440Z,13.99
2019-05-22T01:08:16.376Z,13.92
2019-05-22T01:12:43.063Z,13.92
2019-05-22T01:17:10.291Z,13.90
2019-05-22T01:21:36.703Z,13.78
2019-05-22T01:26:01.284Z,13.73
2019-05-22T01:30:40.158Z,13.77
2019-05-22T01:35:04.612Z,13.77
2019-05-22T01:39:55.890Z,13.72
2019-05-22T01:44:23.146Z,13.72
2019-05-22T01:48:49.101Z,13.68
2019-05-22T01:53:15.485Z,13.65
2019-05-22T01:57:41.239Z,13.61
2019-05-22T02:02:09.403Z,13.45
2019-05-22T02:06:34.268Z,13.36
2019-05-22T02:11:01.682Z,13.33
2019-05-22T02:15:27.577Z,13.31
2019-05-22T02:19:58.755Z,13.29
2019-05-22T02:24:24.147Z,13.29
2019-05-22T02:28:50.812Z,13.25
2019-05-22T02:33:21.015Z,13.25
2019-05-22T02:37:46.633Z,13.33
2019-05-22T02:42:16.115Z,13.22
2019-05-22T02:46:41.042Z,13.22
2019-05-22T02:51:07.003Z,13.28
2019-05-22T02:55:31.022Z,13.21
2019-05-22T02:59:56.883Z,13.17
2019-05-22T03:04:23.474Z,13.23
2019-05-22T03:09:25.291Z,13.17
2019-05-22T03:14:03.883Z,13.17
2019-05-22T03:18:29.125Z,12.97
2019-05-22T03:23:38.543Z,13.03
2019-05-22T03:28:05.873Z,13.05
2019-05-22T03:32:30.517Z,13.02
2019-05-22T03:36:56.370Z,13.02
2019-05-22T03:41:20.754Z,13.11
2019-05-22T03:45:48.109Z,13.12
2019-05-22T03:50:15.418Z,13.12
2019-05-22T03:54:40.190Z,13.15
2019-05-22T03:59:05.612Z,13.19
2019-05-22T04:03:30.094Z,13.25
2019-05-22T04:07:55.355Z,13.24
2019-05-22T04:12:19.966Z,13.19
2019-05-22T04:16:45.247Z,13.14
2019-05-22T04:21:09.491Z,13.19
2019-05-22T04:25:35.063Z,13.25
2019-05-22T04:29:59.923Z,13.37
2019-05-22T04:34:24.388Z,13.42
2019-05-22T04:38:49.120Z,13.44
2019-05-22T04:43:14.051Z,13.41
2019-05-22T04:47:39.929Z,13.47
2019-05-22T04:52:05.280Z,13.49
2019-05-22T04:56:30.030Z,13.43
2019-05-22T05:00:56.372Z,13.41
2019-05-22T05:05:24.599Z,13.37
2019-05-22T05:09:49.961Z,13.43
2019-05-22T05:14:14.724Z,13.47
2019-05-22T05:18:39.459Z,13.50
2019-05-22T05:23:03.641Z,13.45
2019-05-22T05:27:27.832Z,13.37
2019-05-22T05:31:52.112Z,13.36
2019-05-22T05:36:16.610Z,13.41
2019-05-22T05:40:42.094Z,13.38
2019-05-22T05:45:08.251Z,13.38
2019-05-22T05:49:32.558Z,13.41
2019-05-22T05:54:07.285Z,13.61
2019-05-22T05:58:32.158Z,13.61
2019-05-22T06:03:01.184Z,13.56
2019-05-22T06:07:26.199Z,13.53
2019-05-22T06:11:55.899Z,13.53
2019-05-22T06:16:57.278Z,13.49
2019-05-22T06:21:23.015Z,13.55
2019-05-22T06:25:47.527Z,13.55
2019-05-22T06:30:17.815Z,13.69
2019-05-22T06:34:42.050Z,13.71
2019-05-22T06:39:13.900Z,13.62
2019-05-22T06:44:43.855Z,13.55
2019-05-22T06:49:22.429Z,13.56
2019-05-22T06:53:46.616Z,13.55
2019-05-22T06:58:12.492Z,13.40
2019-05-22T07:02:38.474Z,13.45
2019-05-22T07:07:03.399Z,13.47
2019-05-22T07:11:28.359Z,13.47
2019-05-22T07:15:53.631Z,13.55
2019-05-22T07:20:19.419Z,13.55
2019-05-22T07:24:44.592Z,13.64
2019-05-22T07:29:08.924Z,13.65
2019-05-22T07:33:34.954Z,13.63
2019-05-22T07:37:58.868Z,13.62
2019-05-22T07:42:22.788Z,13.65
2019-05-22T07:46:48.401Z,13.63
2019-05-22T07:51:14.791Z,13.80
2019-05-22T07:55:39.805Z,13.81
2019-05-22T08:00:04.425Z,13.99
2019-05-22T08:04:29.692Z,13.99
2019-05-22T08:08:54.559Z,14.11
2019-05-22T08:13:19.055Z,14.18
2019-05-22T08:17:44.488Z,14.17
2019-05-22T08:22:09.234Z,14.20
2019-05-22T08:26:51.601Z,14.19
2019-05-22T08:31:05.354Z,14.42
2019-05-22T08:35:29.731Z,14.42
2019-05-22T08:39:53.998Z,14.65
2019-05-22T08:44:18.197Z,14.80
2019-05-22T08:48:47.707Z,15.09
2019-05-22T08:53:15.632Z,15.62
2019-05-22T08:57:43.111Z,16.17
2019-05-22T09:02:08.727Z,16.48
2019-05-22T09:06:32.784Z,16.88
2019-05-22T09:10:56.606Z,16.88
2019-05-22T09:15:22.049Z,17.34
2019-05-22T09:19:47.803Z,17.76
2019-05-22T09:24:16.611Z,17.71
2019-05-22T09:28:41.231Z,17.89
2019-05-22T09:33:06.316Z,17.89
2019-05-22T09:37:30.977Z,18.37
2019-05-22T09:41:54.937Z,18.37
2019-05-22T09:46:19.216Z,18.93
2019-05-22T09:50:43.466Z,18.90
2019-05-22T09:55:08.273Z,19.47
2019-05-22T09:59:32.372Z,19.81
2019-05-22T10:03:57.480Z,20.17
2019-05-22T10:08:21.750Z,20.26
2019-05-22T10:12:45.567Z,20.28
2019-05-22T10:17:10.251Z,20.41
2019-05-22T10:21:34.869Z,20.65
2019-05-22T10:25:58.742Z,20.87
2019-05-22T10:30:25.297Z,21.11
2019-05-22T10:34:49.494Z,21.21
2019-05-22T10:39:14.196Z,21.21
2019-05-22T10:43:38.600Z,20.85
2019-05-22T10:48:03.233Z,20.97
2019-05-22T10:52:28.120Z,21.10
2019-05-22T10:56:53.108Z,21.20
2019-05-22T11:01:16.909Z,21.38
2019-05-22T11:05:41.559Z,21.80
2019-05-22T11:10:07.136Z,21.60
2019-05-22T11:14:31.312Z,21.65
2019-05-22T11:18:55.813Z,22.12
2019-05-22T11:23:20.213Z,22.19
2019-05-22T11:27:45.321Z,22.30
2019-05-22T11:32:09.979Z,22.42
2019-05-22T11:36:34.970Z,22.13
2019-05-22T11:40:59.361Z,22.18
2019-05-22T11:45:24.983Z,22.18
2019-05-22T11:49:49.274Z,22.19
2019-05-22T11:54:15.050Z,22.15
2019-05-22T11:58:39.351Z,22.12
2019-05-22T12:03:04.238Z,22.12
2019-05-22T12:07:28.451Z,22.27
2019-05-22T12:11:53.314Z,22.39
2019-05-22T12:16:19.378Z,22.42
2019-05-22T12:20:44.051Z,22.32
2019-05-22T12:25:10.485Z,22.12
2019-05-22T12:29:34.478Z,21.74
2019-05-22T12:33:58.553Z,21.62
2019-05-22T12:38:26.749Z,21.78
2019-05-22T12:42:51.825Z,22.11
2019-05-22T12:47:17.512Z,22.52
2019-05-22T12:51:42.232Z,22.84
2019-05-22T12:56:06.765Z,23.27
2019-05-22T13:00:33.706Z,23.08
2019-05-22T13:04:59.463Z,22.72
2019-05-22T13:09:24.042Z,22.66
2019-05-22T13:13:48.869Z,22.78
2019-05-22T13:18:16.231Z,23.27
2019-05-22T13:22:44.737Z,23.40
2019-05-22T13:27:13.672Z,23.08
2019-05-22T13:31:38.270Z,23.08
2019-05-22T13:36:02.706Z,23.32
2019-05-22T13:40:29.822Z,23.34
2019-05-22T13:44:54.504Z,23.56
2019-05-22T13:58:06.978Z,23.34
2019-05-22T14:02:30.901Z,23.48
2019-05-22T14:06:55.130Z,23.85
2019-05-22T14:11:19.410Z,24.00
2019-05-22T14:15:52.578Z,24.00
2019-05-22T14:20:11.327Z,23.78
2019-05-22T14:24:35.709Z,23.79
2019-05-22T14:29:00.753Z,24.03
2019-05-22T14:33:28.082Z,23.99
2019-05-22T14:37:51.645Z,23.40
2019-05-22T14:42:16.943Z,22.92
2019-05-22T14:46:41.296Z,22.62
2019-05-22T14:51:05.908Z,22.39
2019-05-22T14:55:32.325Z,22.54
2019-05-22T14:59:56.892Z,22.72
2019-05-22T15:04:21.140Z,22.91
2019-05-22T15:08:45.672Z,22.93
2019-05-22T15:13:09.785Z,22.86
2019-05-22T15:17:34.479Z,23.06
2019-05-22T15:21:58.800Z,23.20
2019-05-22T15:26:22.935Z,22.89
2019-05-22T15:30:46.994Z,22.78
2019-05-22T15:35:11.776Z,22.71
2019-05-22T15:39:37.378Z,22.75
2019-05-22T15:44:01.896Z,22.54
2019-05-22T15:48:29.880Z,22.55
2019-05-22T15:53:01.295Z,22.45
2019-05-22T15:57:26.120Z,22.09
2019-05-22T16:01:51.078Z,21.92
2019-05-22T16:06:16.223Z,21.91
2019-05-22T16:10:43.121Z,21.78
2019-05-22T16:15:08.039Z,21.57
2019-05-22T16:19:33.357Z,21.57
2019-05-22T16:23:59.931Z,21.62
2019-05-22T16:28:24.756Z,21.62
2019-05-22T16:32:48.809Z,21.61
2019-05-22T16:37:15.420Z,21.77
2019-05-22T16:41:40.119Z,21.94
2019-05-22T16:46:06.775Z,22.13
2019-05-22T16:50:31.448Z,21.88
2019-05-22T16:54:55.823Z,21.50
2019-05-22T16:59:20.463Z,21.50
2019-05-22T17:03:44.361Z,21.42
2019-05-22T17:08:09.425Z,21.31
2019-05-22T17:12:34.729Z,21.10
2019-05-22T17:16:58.725Z,21.10
2019-05-22T17:21:23.407Z,20.95
2019-05-22T17:25:47.676Z,20.43
2019-05-22T17:30:13.857Z,20.43
2019-05-22T17:34:39.451Z,20.37
2019-05-22T17:39:03.276Z,20.51
2019-05-22T17:43:28.755Z,20.26
2019-05-22T17:47:54.688Z,20.09
2019-05-22T17:52:21.977Z,20.09
2019-05-22T17:56:45.946Z,20.12
2019-05-22T18:01:11.213Z,20.02
2019-05-22T18:05:41.822Z,19.96
2019-05-22T18:10:11.595Z,19.66
2019-05-22T18:14:36.770Z,19.25
2019-05-22T18:23:42.350Z,18.94
2019-05-22T18:28:07.325Z,18.73
2019-05-22T18:32:34.640Z,18.68
2019-05-22T18:36:58.701Z,18.52
2019-05-22T18:41:22.911Z,18.44
2019-05-22T18:45:46.979Z,18.23
2019-05-22T18:50:11.514Z,17.85
2019-05-22T18:54:35.493Z,17.85
2019-05-22T18:58:59.541Z,17.79
2019-05-22T19:03:23.723Z,17.78
2019-05-22T19:07:47.717Z,17.67
2019-05-22T19:12:11.582Z,17.67
2019-05-22T19:16:36.083Z,17.61
2019-05-22T19:21:00.237Z,17.54
2019-05-22T19:25:24.216Z,17.45
2019-05-22T19:29:48.200Z,17.29
2019-05-22T19:34:13.626Z,17.29
2019-05-22T19:38:37.850Z,17.20
2019-05-22T19:43:02.154Z,17.13
2019-05-22T19:47:26.418Z,17.08
2019-05-22T19:51:51.132Z,16.81
2019-05-22T19:56:15.295Z,16.81
2019-05-22T20:00:39.351Z,16.77
2019-05-22T20:05:04.005Z,16.77
2019-05-22T20:09:28.873Z,16.72
2019-05-22T20:13:53.708Z,16.60
2019-05-22T20:18:17.592Z,16.48
2019-05-22T20:22:42.065Z,16.42
2019-05-22T20:27:09.626Z,16.42
2019-05-22T20:31:32.331Z,16.38
2019-05-22T20:35:56.743Z,16.26
2019-05-22T20:40:23.188Z,16.26
2019-05-22T20:44:46.994Z,16.15
2019-05-22T20:49:11.947Z,16.06
2019-05-22T20:53:53.068Z,16.00
2019-05-22T20:58:05.983Z,15.83
2019-05-22T21:02:31.185Z,15.83
2019-05-22T21:07:00.534Z,15.62
2019-05-22T21:11:27.311Z,15.62
2019-05-22T21:15:53.180Z,15.56
2019-05-22T21:20:20.315Z,15.34
2019-05-22T21:24:44.435Z,15.34
2019-05-22T21:29:09.017Z,15.24
2019-05-22T21:33:32.816Z,15.10
2019-05-22T21:37:56.703Z,14.99
2019-05-22T21:42:21.452Z,14.83
2019-05-22T21:46:45.450Z,14.72
2019-05-22T21:51:10.575Z,14.72
2019-05-22T21:55:35.125Z,14.58
2019-05-22T22:00:00.057Z,14.43
2019-05-22T22:04:30.895Z,14.24
2019-05-22T22:08:55.684Z,14.10
2019-05-22T22:13:19.814Z,14.01
2019-05-22T22:17:45.542Z,13.88
2019-05-22T22:22:13.373Z,13.81
2019-05-22T22:26:37.443Z,13.71
2019-05-22T22:31:05.851Z,13.61
2019-05-22T22:35:31.432Z,13.57
2019-05-22T22:39:57.283Z,13.48
2019-05-22T22:44:22.619Z,13.33
2019-05-22T22:48:48.575Z,13.17
2019-05-22T22:53:15.568Z,13.05
2019-05-22T22:57:40.797Z,12.96
2019-05-22T23:02:10.708Z,12.89
2019-05-22T23:06:36.589Z,12.84
2019-05-22T23:11:01.714Z,12.77
2019-05-22T23:15:26.650Z,12.69
2019-05-22T23:19:49.650Z,12.58
2019-05-22T23:24:14.057Z,12.45
2019-05-22T23:28:40.752Z,12.39
2019-05-22T23:33:06.540Z,12.18
2019-05-22T23:37:32.242Z,12.03
2019-05-22T23:41:59.405Z,12.03
2019-05-22T23:46:25.953Z,11.98
2019-05-22T23:50:50.059Z,11.96
2019-05-22T23:55:14.424Z,11.90
2019-05-22T23:59:40.636Z,11.82
